Time;durP1;ratioP1;P1;durP2;ratioP2;P2;SDS_P1;SDS_P2;PMS_P1;PMS_P2;Temp;Humidity;BMP_temperature;BMP_pressure;BME280_temperature;BME280_humidity;BME280_pressure;Samples;Min_cycle;Max_cycle;Signal;HPM_P1;HPM_P2
2022/07/06 00:03:46;;;;;;;9.18;3.25;;;;;;;19.59;66.05;100991.34;5153633;56;1137174;-78
2022/07/06 00:08:51;;;;;;;2.58;2.37;;;;;;;19.63;66.02;100996.72;5146679;56;1136840;-75
2022/07/06 00:13:57;;;;;;;13.13;2.95;;;;;;;19.62;66.06;100993.70;5197243;56;1137285;-72
2022/07/06 00:19:03;;;;;;;8.35;2.83;;;;;;;19.50;66.06;100991.00;5204744;56;1139082;-78
2022/07/06 00:24:09;;;;;;;4.12;2.87;;;;;;;19.26;66.11;100993.08;5168334;56;1137069;-79
2022/07/06 00:29:15;;;;;;;5.25;3.00;;;;;;;19.21;66.78;101001.30;5149768;56;1136914;-74
2022/07/06 00:34:20;;;;;;;5.47;2.92;;;;;;;19.20;67.32;100996.44;5148874;56;1136908;-76
2022/07/06 00:39:29;;;;;;;3.92;2.95;;;;;;;19.17;67.65;100990.55;5148958;56;1137152;-75
2022/07/06 00:44:34;;;;;;;8.35;3.25;;;;;;;19.22;68.34;100981.53;5148959;57;1136908;-79
2022/07/06 00:55:04;;;;;;;2.62;2.22;;;;;;;19.25;67.92;100979.83;5166536;56;1139080;-75
2022/07/06 01:00:13;;;;;;;3.23;2.93;;;;;;;19.29;68.15;100982.53;5173965;56;1139141;-79
2022/07/06 01:05:20;;;;;;;6.62;2.90;;;;;;;19.26;68.03;100981.52;5204434;56;1139074;-76
2022/07/06 01:10:27;;;;;;;8.48;3.20;;;;;;;18.99;67.30;100987.98;5197402;56;1139094;-80
2022/07/06 01:15:33;;;;;;;5.30;3.83;;;;;;;18.71;67.71;100993.22;5194015;57;1139047;-75
2022/07/06 01:20:39;;;;;;;5.95;3.60;;;;;;;18.50;68.52;100993.06;5195821;56;1139071;-74
2022/07/06 01:25:45;;;;;;;9.48;4.22;;;;;;;18.29;68.85;100995.30;5237093;55;1139099;-76
2022/07/06 01:30:51;;;;;;;7.90;3.42;;;;;;;18.18;69.83;100993.69;5239730;55;1139373;-74
2022/07/06 01:35:57;;;;;;;4.28;2.80;;;;;;;18.26;70.98;100996.45;5239670;56;1139288;-77
2022/07/06 01:41:08;;;;;;;4.40;2.40;;;;;;;18.34;71.31;101000.16;5239895;55;1139065;-78
2022/07/06 01:46:15;;;;;;;3.47;2.83;;;;;;;18.38;71.55;100997.52;5240140;56;1139098;-77
2022/07/06 01:51:21;;;;;;;3.92;2.80;;;;;;;18.48;71.79;100990.23;5239614;55;1139335;-77
2022/07/06 01:56:26;;;;;;;7.50;3.08;;;;;;;18.51;71.66;100996.59;5219000;56;1139242;-75
2022/07/06 02:01:33;;;;;;;5.17;2.52;;;;;;;18.40;71.77;100991.01;5204844;56;1139315;-79
2022/07/06 02:06:40;;;;;;;9.78;3.15;;;;;;;18.41;71.99;100992.69;5165753;57;1138966;-79
2022/07/06 02:11:46;;;;;;;4.95;2.98;;;;;;;18.36;71.79;101000.34;5137225;56;1139044;-77
2022/07/06 02:16:53;;;;;;;4.35;3.25;;;;;;;18.09;71.28;100997.81;5228705;55;1139053;-75
2022/07/06 02:21:59;;;;;;;7.25;3.70;;;;;;;17.88;71.91;101000.81;5186072;57;1139094;-78
2022/07/06 02:27:05;;;;;;;3.70;2.60;;;;;;;17.95;72.83;100997.04;5134995;57;1139192;-76
2022/07/06 02:32:12;;;;;;;4.78;3.15;;;;;;;17.90;72.17;101001.02;5163316;56;1139219;-79
2022/07/06 02:37:18;;;;;;;7.78;2.85;;;;;;;17.46;72.05;101009.43;5163151;56;1139101;-77
2022/07/06 02:42:23;;;;;;;8.18;3.12;;;;;;;17.20;73.33;101004.48;5163608;56;1139131;-76
2022/07/06 02:47:31;;;;;;;12.37;3.67;;;;;;;17.39;74.68;101003.02;5163384;56;1139002;-76
2022/07/06 02:52:37;;;;;;;13.17;3.77;;;;;;;17.46;74.38;100997.89;5163273;57;1141110;-79
2022/07/06 02:57:43;;;;;;;12.36;3.18;;;;;;;17.48;74.27;101000.77;5151063;57;1141149;-77
2022/07/06 03:02:50;;;;;;;6.37;3.90;;;;;;;17.48;74.07;101006.11;5108592;57;1140823;-80
2022/07/06 03:07:57;;;;;;;5.00;3.03;;;;;;;17.12;74.40;101017.73;5130451;57;1139116;-80
2022/07/06 03:13:03;;;;;;;4.30;2.80;;;;;;;16.42;75.00;101019.95;5158417;56;1139138;-75
2022/07/06 03:18:09;;;;;;;3.20;2.60;;;;;;;16.25;76.23;101018.02;5182135;56;1139329;-78
2022/07/06 03:23:16;;;;;;;4.97;2.70;;;;;;;16.30;77.08;101024.28;5162748;56;1139199;-80
2022/07/06 03:28:23;;;;;;;10.97;3.67;;;;;;;16.27;77.68;101021.40;5118267;57;1139471;-74
2022/07/06 03:33:30;;;;;;;10.17;4.07;;;;;;;16.38;79.04;101021.22;5089343;57;1141153;-76
2022/07/06 03:38:38;;;;;;;9.13;3.97;;;;;;;16.38;79.04;101021.22;5129230;57;1141224;-76
2022/07/06 03:43:44;;;;;;;15.80;3.87;;;;;;;16.72;80.12;101016.23;5135841;57;1139013;-75
2022/07/06 03:48:51;;;;;;;12.80;4.00;;;;;;;17.00;79.50;101018.43;5139177;57;1141326;-77
2022/07/06 03:53:57;;;;;;;10.33;4.43;;;;;;;16.97;79.44;101016.05;5182089;56;1139150;-78
2022/07/06 03:59:04;;;;;;;4.40;3.40;;;;;;;16.82;79.81;101015.70;5204786;56;1139122;-80
2022/07/06 04:04:11;;;;;;;5.83;3.40;;;;;;;16.70;80.58;101013.36;5204656;56;1136938;-79
2022/07/06 04:09:18;;;;;;;13.53;3.87;;;;;;;16.62;80.72;101015.41;5204497;55;1136986;-78
2022/07/06 04:14:27;;;;;;;11.70;3.70;;;;;;;16.53;80.96;101013.59;5259086;55;1139015;-78
2022/07/06 04:19:32;;;;;;;4.42;3.34;;;;;;;16.46;81.20;101005.34;5241279;56;1139024;-75
2022/07/06 04:24:37;;;;;;;8.10;3.47;;;;;;;16.45;81.38;101008.16;5234079;56;1136871;-80
2022/07/06 04:29:43;;;;;;;5.50;3.77;;;;;;;16.52;81.84;101012.75;5217635;56;1137124;-79
2022/07/06 04:34:51;;;;;;;10.20;4.17;;;;;;;16.56;82.46;101009.80;5203725;56;1136930;-75
2022/07/06 04:39:57;;;;;;;13.33;4.77;;;;;;;16.61;83.15;101000.86;5154440;57;1139270;-79
2022/07/06 04:45:03;;;;;;;5.13;3.60;;;;;;;16.68;84.18;101005.98;5239364;56;1139063;-75
2022/07/06 04:50:09;;;;;;;7.40;4.60;;;;;;;16.75;85.04;101007.94;5187371;56;1137044;-77
2022/07/06 04:55:15;;;;;;;7.47;4.07;;;;;;;16.86;86.14;101003.73;5202152;56;1136972;-74
2022/07/06 05:00:22;;;;;;;9.77;4.80;;;;;;;16.92;86.54;101004.98;5202217;56;1136929;-78
2022/07/06 05:05:28;;;;;;;18.83;6.37;;;;;;;17.05;86.54;101004.14;5200181;55;1137023;-79
2022/07/06 05:10:35;;;;;;;13.40;5.10;;;;;;;17.16;87.29;101009.27;5206118;55;1139094;-75
2022/07/06 05:15:41;;;;;;;11.10;4.30;;;;;;;17.35;87.77;100998.96;4859241;60;1139118;-76
2022/07/06 05:20:47;;;;;;;12.23;5.20;;;;;;;17.55;87.67;100997.84;4856035;60;1137017;-78
2022/07/06 05:25:54;;;;;;;9.20;3.90;;;;;;;17.85;88.42;100984.60;4837239;60;1165445;-77
2022/07/06 05:31:01;;;;;;;6.12;3.10;;;;;;;18.24;88.20;100977.52;4818681;60;1139177;-76
2022/07/06 05:36:07;;;;;;;6.17;3.47;;;;;;;18.47;87.33;100984.53;4874256;60;1139079;-73
2022/07/06 05:41:13;;;;;;;9.47;3.50;;;;;;;18.52;85.82;100982.20;5033966;57;1147539;-79
2022/07/06 05:46:19;;;;;;;7.62;2.85;;;;;;;18.65;85.58;100979.95;5078518;57;1139011;-73
2022/07/06 05:51:26;;;;;;;12.23;3.87;;;;;;;18.72;84.83;100976.98;5079346;56;1139081;-77
2022/07/06 05:56:32;;;;;;;6.85;3.95;;;;;;;18.75;84.69;100976.67;5070902;57;1141226;-78
2022/07/06 06:01:39;;;;;;;13.48;3.10;;;;;;;18.80;84.78;100973.48;5057827;56;1139045;-79
2022/07/06 06:06:49;;;;;;;6.78;4.08;;;;;;;18.92;84.91;100971.72;5140956;57;1141068;-80
2022/07/06 06:11:55;;;;;;;8.43;2.92;;;;;;;19.17;84.97;100979.33;5133429;55;1139247;-79
2022/07/06 06:17:08;;;;;;;5.50;2.85;;;;;;;19.28;85.16;100976.33;5237397;55;1139002;-77
2022/07/06 06:22:13;;;;;;;10.05;2.98;;;;;;;19.61;83.94;100977.77;5182080;56;1139145;-79
2022/07/06 06:27:19;;;;;;;5.33;2.80;;;;;;;19.72;83.20;100984.63;5223939;55;1141467;-80
2022/07/06 06:32:25;;;;;;;3.87;2.33;;;;;;;19.89;82.43;100982.30;5232640;56;1139042;-81
2022/07/06 06:37:31;;;;;;;5.70;3.00;;;;;;;20.06;82.08;100989.34;5218487;56;1139057;-77
2022/07/06 06:42:39;;;;;;;3.67;2.15;;;;;;;20.18;80.90;100990.66;5231956;56;1139591;-76
2022/07/06 06:47:47;;;;;;;3.62;1.67;;;;;;;20.11;77.93;100987.50;5232951;56;1139088;-78
2022/07/06 06:52:53;;;;;;;4.00;1.70;;;;;;;20.03;77.52;100973.56;5236508;56;1139262;-76
2022/07/06 06:57:59;;;;;;;3.33;2.00;;;;;;;20.02;77.69;100975.41;5246993;56;1138933;-78
2022/07/06 07:03:05;;;;;;;5.33;2.20;;;;;;;20.19;77.46;100967.33;5251484;56;1138950;-74
2022/07/06 07:08:11;;;;;;;3.22;1.60;;;;;;;20.30;76.17;100963.81;5205070;56;1139268;-76
2022/07/06 07:13:16;;;;;;;3.25;1.40;;;;;;;20.24;74.44;100970.36;5242212;56;1139032;-78
2022/07/06 07:18:22;;;;;;;5.85;1.40;;;;;;;20.22;74.07;100975.89;5247674;56;1139026;-74
2022/07/06 07:23:28;;;;;;;5.60;1.95;;;;;;;20.12;72.01;100971.72;5269647;56;1139178;-77
2022/07/06 07:28:34;;;;;;;5.10;1.55;;;;;;;20.08;71.29;100974.41;5250928;55;1139074;-76
2022/07/06 07:33:40;;;;;;;2.12;1.45;;;;;;;19.98;71.16;100978.62;5280896;56;1139027;-79
2022/07/06 07:38:45;;;;;;;3.22;1.17;;;;;;;19.89;70.86;100975.08;5218089;56;1138987;-76
2022/07/06 07:43:51;;;;;;;4.45;1.67;;;;;;;19.80;69.98;100976.60;5216786;56;1138956;-78
2022/07/06 07:48:57;;;;;;;1.75;1.50;;;;;;;19.83;70.81;100977.11;5244520;55;1139076;-77
2022/07/06 07:54:03;;;;;;;2.95;1.47;;;;;;;19.81;71.48;100993.89;5235878;56;1139096;-79
2022/07/06 07:59:09;;;;;;;4.60;1.42;;;;;;;19.63;71.57;101005.27;5231601;56;1139183;-76
2022/07/06 08:04:16;;;;;;;5.05;1.12;;;;;;;19.34;71.78;100997.64;5205829;56;1139043;-79
2022/07/06 08:09:22;;;;;;;1.90;1.32;;;;;;;19.25;73.17;100995.92;5207152;56;1139038;-80
2022/07/06 08:14:28;;;;;;;4.00;1.22;;;;;;;19.23;73.56;101003.33;5259026;55;1138987;-78
2022/07/06 08:19:34;;;;;;;9.25;2.40;;;;;;;19.26;75.43;101000.29;5117120;57;1138987;-75
2022/07/06 08:24:39;;;;;;;3.50;0.93;;;;;;;19.14;76.98;101027.91;5243382;55;1139063;-77
2022/07/06 08:29:45;;;;;;;6.28;1.40;;;;;;;18.75;75.39;101040.98;5142250;57;1139298;-77
2022/07/06 08:34:50;;;;;;;6.53;1.47;;;;;;;18.14;78.04;101065.13;5276164;55;1139162;-77
2022/07/06 08:39:56;;;;;;;4.53;1.07;;;;;;;17.65;78.97;101058.47;5228337;56;1137181;-77
2022/07/06 08:45:05;;;;;;;5.83;0.98;;;;;;;17.54;81.78;101053.66;5330491;55;1136975;-77
2022/07/06 08:50:12;;;;;;;1.12;0.70;;;;;;;17.57;82.61;101058.69;5230337;56;1137102;-75
2022/07/06 08:55:19;;;;;;;3.12;0.90;;;;;;;17.56;81.80;101060.20;5089743;57;1136940;-80
2022/07/06 09:00:26;;;;;;;2.75;0.88;;;;;;;17.61;81.79;101059.73;5209951;56;1136979;-76
2022/07/06 09:05:33;;;;;;;5.22;1.10;;;;;;;17.68;83.22;101054.16;5209961;56;1136984;-78
2022/07/06 09:10:38;;;;;;;4.07;1.00;;;;;;;17.80;82.84;101051.11;5190139;55;1136968;-80
2022/07/06 09:15:45;;;;;;;1.52;0.70;;;;;;;18.00;82.20;101052.30;5298021;55;1136968;-74
2022/07/06 09:20:51;;;;;;;1.07;0.80;;;;;;;18.23;80.93;101045.45;5116535;57;1136309;-81
2022/07/06 09:25:57;;;;;;;7.75;1.22;;;;;;;18.46;80.01;101047.98;5130840;57;1137236;-78
2022/07/06 09:31:08;;;;;;;3.83;0.78;;;;;;;18.61;79.20;101039.73;5317243;55;1136926;-76
2022/07/06 09:36:14;;;;;;;4.87;2.17;;;;;;;18.69;77.87;101041.61;5330308;55;1136963;-80
2022/07/06 09:41:34;;;;;;;1.52;0.93;;;;;;;18.81;78.25;101041.66;5330104;55;1137175;-78
2022/07/06 09:46:46;;;;;;;7.30;1.10;;;;;;;19.03;77.23;101027.37;5287629;55;1135080;-80
2022/07/06 09:51:59;;;;;;;1.40;0.75;;;;;;;19.23;74.44;101029.64;5321388;55;1139023;-78
2022/07/06 09:57:05;;;;;;;1.27;0.82;;;;;;;19.75;71.58;101013.83;5263564;55;1139020;-79
2022/07/06 10:02:14;;;;;;;1.37;0.67;;;;;;;19.75;71.58;101013.83;5235240;56;1139037;-78
2022/07/06 10:07:19;;;;;;;1.00;0.84;;;;;;;19.89;70.78;101018.54;5221630;56;1139023;-78
2022/07/06 10:12:26;;;;;;;0.95;0.70;;;;;;;19.93;66.71;101023.41;5201361;56;1139097;-79
2022/07/06 10:17:32;;;;;;;3.20;0.62;;;;;;;19.98;66.93;101023.77;5221200;56;1139091;-79
2022/07/06 10:22:39;;;;;;;1.82;0.80;;;;;;;19.78;64.75;101024.24;5247782;56;21237;-78
2022/07/06 10:27:47;;;;;;;5.00;1.15;;;;;;;19.80;66.65;101027.60;5242416;56;21190;-78
2022/07/06 10:32:53;;;;;;;8.20;0.82;;;;;;;20.10;67.68;101022.08;5247781;56;21177;-79
2022/07/06 10:38:12;;;;;;;1.52;0.75;;;;;;;20.40;66.82;101015.19;5242391;56;22444;-79
2022/07/06 10:43:18;;;;;;;2.15;1.02;;;;;;;20.38;63.65;101026.61;5180060;56;21571;-78
2022/07/06 10:48:24;;;;;;;2.83;0.90;;;;;;;20.16;63.03;101021.41;5161591;57;21692;-67
2022/07/06 10:53:34;;;;;;;5.60;1.52;;;;;;;20.21;60.88;101025.25;5162963;56;21259;-66
2022/07/06 10:58:52;;;;;;;1.15;0.53;;;;;;;20.33;59.65;101016.33;5260267;56;21091;-67
2022/07/06 11:04:03;;;;;;;2.20;0.80;;;;;;;20.32;60.00;101018.17;5260247;56;21203;-67
2022/07/06 11:09:11;;;;;;;0.95;0.65;;;;;;;20.14;60.43;101021.58;5260192;56;21178;-64
2022/07/06 11:14:19;;;;;;;1.90;0.53;;;;;;;20.08;60.47;101024.08;5260180;56;21079;-68
2022/07/06 11:19:25;;;;;;;2.37;0.50;;;;;;;20.25;62.15;101010.98;5262159;55;21143;-68
2022/07/06 11:24:35;;;;;;;1.05;0.62;;;;;;;20.62;59.38;101015.30;5255323;55;21147;-66
2022/07/06 11:29:42;;;;;;;5.45;0.82;;;;;;;20.74;57.53;101020.33;5231402;56;21220;-66
2022/07/06 11:34:48;;;;;;;1.62;0.60;;;;;;;20.57;57.62;101018.19;5225024;56;21132;-68
2022/07/06 11:39:54;;;;;;;1.70;0.60;;;;;;;20.39;56.79;101018.38;5231173;55;21218;-67
2022/07/06 11:44:59;;;;;;;5.17;0.75;;;;;;;20.26;57.05;101014.01;5231374;56;21183;-68
2022/07/06 11:50:07;;;;;;;3.60;0.57;;;;;;;20.25;55.85;101006.45;5231225;56;21151;-79
2022/07/06 11:55:16;;;;;;;11.93;0.90;;;;;;;20.30;54.42;100994.70;5269987;55;21151;-78
2022/07/06 12:00:25;;;;;;;3.17;0.60;;;;;;;20.36;53.97;101007.97;5319820;55;21160;-79
2022/07/06 12:05:33;;;;;;;3.52;0.60;;;;;;;20.35;50.21;100996.34;5328114;55;21447;-79
2022/07/06 12:10:39;;;;;;;4.10;0.40;;;;;;;20.67;52.21;100995.47;5319803;55;21582;-79
2022/07/06 12:15:44;;;;;;;6.42;0.62;;;;;;;21.16;49.43;100991.23;5320021;55;21155;-81
2022/07/06 12:20:50;;;;;;;5.40;0.70;;;;;;;21.19;48.67;100986.88;5265991;55;21139;-74
2022/07/06 12:25:56;;;;;;;1.00;0.57;;;;;;;21.36;47.73;100998.39;5125391;57;21193;-79
2022/07/06 12:31:02;;;;;;;0.98;0.53;;;;;;;21.23;48.79;100992.25;5163438;57;22400;-77
2022/07/06 12:36:15;;;;;;;3.52;0.50;;;;;;;21.12;47.54;100999.82;5163523;56;21541;-78
2022/07/06 12:41:34;;;;;;;5.03;0.50;;;;;;;20.93;47.56;101009.98;5163410;57;21560;-77
2022/07/06 12:46:42;;;;;;;0.42;0.40;;;;;;;20.97;46.99;101009.97;5163389;57;21462;-75
2022/07/06 12:52:15;;;;;;;3.87;0.70;;;;;;;21.14;47.97;101016.13;5181377;56;21122;-78
2022/07/06 12:57:26;;;;;;;5.07;0.97;;;;;;;21.10;48.40;101016.13;5235071;56;21213;-79
2022/07/06 13:02:38;;;;;;;2.10;0.60;;;;;;;21.12;46.94;101019.48;5241466;56;21490;-76
2022/07/06 13:07:49;;;;;;;1.05;0.35;;;;;;;21.06;49.87;101014.32;5223497;56;21091;-77
2022/07/06 13:12:55;;;;;;;1.87;0.37;;;;;;;21.32;48.25;101014.55;5231345;56;21134;-78
2022/07/06 13:18:00;;;;;;;2.92;0.42;;;;;;;21.49;44.13;101024.72;5259817;56;21479;-77
2022/07/06 13:23:06;;;;;;;5.45;0.42;;;;;;;21.43;43.89;101019.53;5221171;56;21165;-76
2022/07/06 13:28:11;;;;;;;1.20;0.40;;;;;;;21.32;45.72;101017.24;5186113;56;21086;-78
2022/07/06 13:33:17;;;;;;;1.10;0.40;;;;;;;21.27;44.62;101025.84;5258749;56;21165;-78
2022/07/06 13:38:23;;;;;;;0.70;0.20;;;;;;;21.29;43.75;101015.73;5219829;56;21177;-78
2022/07/06 13:43:35;;;;;;;4.33;0.23;;;;;;;21.60;42.81;101017.57;5223507;56;21130;-78
2022/07/06 13:48:39;;;;;;;7.15;0.33;;;;;;;21.35;42.78;101033.04;5223052;56;21091;-77
2022/07/06 13:53:45;;;;;;;0.23;0.20;;;;;;;21.16;45.08;101031.58;5254939;56;21154;-79
2022/07/06 13:58:51;;;;;;;0.62;0.35;;;;;;;21.02;44.94;101029.13;5173065;57;21181;-79
2022/07/06 14:03:56;;;;;;;2.83;0.60;;;;;;;20.85;45.89;101022.12;5173104;57;22062;-79
2022/07/06 14:09:02;;;;;;;1.17;0.57;;;;;;;20.80;47.94;101023.65;5173063;57;21213;-79
2022/07/06 14:14:08;;;;;;;0.30;0.30;;;;;;;20.83;47.64;101025.99;5222586;56;21550;-79
2022/07/06 14:19:14;;;;;;;0.50;0.50;;;;;;;20.90;47.96;101031.03;5227115;56;21610;-79
2022/07/06 14:24:20;;;;;;;3.85;0.60;;;;;;;20.94;46.81;101032.33;5207314;56;21149;-79
2022/07/06 14:29:26;;;;;;;14.43;0.50;;;;;;;21.08;48.65;101028.41;5173065;56;21146;-78
2022/07/06 14:34:32;;;;;;;3.55;0.90;;;;;;;21.32;48.31;101018.59;5173107;57;21695;-79
2022/07/06 14:39:38;;;;;;;0.40;0.20;;;;;;;21.45;47.01;101013.47;5172999;57;21191;-79
2022/07/06 14:44:43;;;;;;;6.92;0.53;;;;;;;21.52;45.99;101018.48;5172892;57;21079;-79
2022/07/06 14:49:50;;;;;;;2.87;0.55;;;;;;;21.37;47.58;101017.05;5172997;57;21146;-78
2022/07/06 14:54:57;;;;;;;1.95;0.70;;;;;;;21.21;49.24;101025.72;5198547;56;21146;-78
2022/07/06 15:00:03;;;;;;;4.28;0.60;;;;;;;20.88;50.16;101024.47;5259614;56;21193;-78
2022/07/06 15:05:11;;;;;;;12.45;0.90;;;;;;;20.73;51.05;101031.58;5167521;56;1134821;-78
2022/07/06 15:10:17;;;;;;;2.83;0.50;;;;;;;20.78;50.67;101035.91;5239689;55;1141067;-78
2022/07/06 15:15:22;;;;;;;3.02;0.42;;;;;;;20.54;50.62;101040.86;5219454;56;1139247;-78
2022/07/06 15:20:28;;;;;;;1.20;0.42;;;;;;;20.37;50.06;101043.23;5219253;56;1139030;-78
2022/07/06 15:25:34;;;;;;;2.02;0.80;;;;;;;20.31;49.22;101039.36;5235920;56;1139235;-78
2022/07/06 15:30:40;;;;;;;5.50;1.30;;;;;;;20.33;49.32;101031.95;5234312;56;1139048;-78
2022/07/06 15:35:47;;;;;;;0.60;0.60;;;;;;;20.41;49.77;101035.67;5170084;56;1139167;-79
2022/07/06 15:41:02;;;;;;;1.67;0.53;;;;;;;20.71;49.48;101024.19;5259058;55;1136230;-78
2022/07/06 15:46:08;;;;;;;1.55;0.72;;;;;;;20.90;48.37;101024.30;5237093;55;1136947;-79
2022/07/06 15:51:14;;;;;;;2.92;0.50;;;;;;;20.99;48.60;101021.91;5230875;55;1137070;-79
2022/07/06 15:56:20;;;;;;;4.22;0.90;;;;;;;21.00;47.24;101024.92;5194528;55;1136952;-79
2022/07/06 16:01:26;;;;;;;1.37;0.90;;;;;;;20.86;48.25;101018.43;5232903;55;1137186;-79
2022/07/06 16:06:32;;;;;;;2.05;1.02;;;;;;;20.78;47.56;101017.63;5230063;56;1136958;-80
2022/07/06 16:11:42;;;;;;;1.65;0.40;;;;;;;20.71;47.27;101013.44;5196396;56;1136992;-80
2022/07/06 16:16:48;;;;;;;1.70;0.60;;;;;;;20.59;47.88;101009.45;5162921;56;1137040;-80
2022/07/06 16:21:53;;;;;;;0.25;0.20;;;;;;;20.45;48.49;101014.19;5243172;55;1136849;-80
2022/07/06 16:27:00;;;;;;;0.98;0.40;;;;;;;20.35;48.29;101008.95;5267344;55;1137065;-78
2022/07/06 16:32:06;;;;;;;2.45;1.40;;;;;;;20.22;48.57;101008.12;5272669;55;1137082;-78
2022/07/06 16:37:11;;;;;;;257.95;232.57;;;;;;;20.13;48.74;101011.00;5312560;55;1136923;-79
2022/07/06 16:42:18;;;;;;;12.23;11.22;;;;;;;20.17;49.99;101005.60;5250115;55;1145419;-79
2022/07/06 16:47:24;;;;;;;2.90;2.22;;;;;;;20.24;49.13;101004.77;5248704;55;1141069;-76
2022/07/06 16:52:30;;;;;;;9.98;7.60;;;;;;;20.19;49.74;101007.62;5257044;55;1137036;-79
2022/07/06 16:57:35;;;;;;;4.10;2.00;;;;;;;20.15;49.36;101004.45;5264491;55;1136949;-78
2022/07/06 17:02:41;;;;;;;1.20;0.70;;;;;;;20.16;49.66;101007.48;5310151;55;1134946;-78
2022/07/06 17:07:47;;;;;;;1.50;1.40;;;;;;;20.14;49.98;100998.75;5307803;55;1134902;-79
2022/07/06 17:12:52;;;;;;;13.40;7.35;;;;;;;20.08;49.40;100998.07;5311537;55;1139245;-79
2022/07/06 17:18:00;;;;;;;10.53;6.90;;;;;;;20.03;50.63;100997.22;5229018;56;1141109;-79
2022/07/06 17:23:06;;;;;;;2.67;1.03;;;;;;;19.93;51.25;100996.56;5143450;56;1141117;-79
2022/07/06 17:28:12;;;;;;;20.57;11.03;;;;;;;19.82;52.26;100983.48;5143167;56;1139012;-78
2022/07/06 17:33:18;;;;;;;10.90;7.08;;;;;;;19.68;54.16;100986.00;5142881;56;1143287;-79
2022/07/06 17:38:23;;;;;;;3.00;1.52;;;;;;;19.53;55.10;100973.74;5143551;56;1141168;-79
2022/07/06 17:43:31;;;;;;;2.47;1.30;;;;;;;19.47;55.80;100985.93;5143197;56;1139070;-79
2022/07/06 17:48:37;;;;;;;1.40;0.75;;;;;;;19.45;56.00;100997.33;5143489;56;1138653;-78
2022/07/06 17:53:43;;;;;;;3.15;1.10;;;;;;;19.37;54.54;100993.80;5147280;56;1139351;-79
2022/07/06 17:58:48;;;;;;;3.30;1.55;;;;;;;19.24;54.36;101007.69;5229202;55;1139237;-78
2022/07/06 18:03:54;;;;;;;3.92;0.85;;;;;;;19.17;54.73;100999.94;5230502;55;1139411;-79
2022/07/06 18:09:00;;;;;;;6.08;1.37;;;;;;;19.18;55.09;101005.64;5230549;56;1139022;-78
2022/07/06 18:14:06;;;;;;;3.60;1.77;;;;;;;19.15;55.29;101006.80;5192012;56;1138967;-78
2022/07/06 18:19:15;;;;;;;5.80;1.47;;;;;;;19.12;55.42;101014.32;5224719;56;1139078;-79
2022/07/06 18:24:21;;;;;;;2.33;1.40;;;;;;;19.07;56.03;101005.45;5188974;56;1139167;-78
2022/07/06 18:29:26;;;;;;;2.90;0.90;;;;;;;18.96;56.47;100991.81;5197609;56;1138937;-80
2022/07/06 18:34:32;;;;;;;2.40;0.60;;;;;;;18.92;56.46;100991.82;5200740;57;1138964;-78
2022/07/06 18:39:37;;;;;;;1.27;0.45;;;;;;;18.87;56.56;100990.61;5163292;56;1139194;-80
2022/07/06 18:44:43;;;;;;;3.67;0.70;;;;;;;18.80;56.67;100987.73;5132438;57;1139036;-80
2022/07/06 18:49:50;;;;;;;1.17;0.60;;;;;;;18.76;56.88;100989.06;5065278;57;1139094;-78
2022/07/06 18:54:56;;;;;;;2.35;0.95;;;;;;;18.69;57.21;100986.67;5106282;57;1139050;-79
2022/07/06 19:00:03;;;;;;;5.58;2.00;;;;;;;18.61;57.14;100983.97;5205046;57;1138949;-77
2022/07/06 19:05:09;;;;;;;12.13;3.85;;;;;;;18.48;57.27;100993.75;5183219;57;1139109;-79
2022/07/06 19:10:15;;;;;;;7.05;2.15;;;;;;;18.42;57.54;100990.36;5180691;57;1141138;-78
2022/07/06 19:15:22;;;;;;;16.17;6.20;;;;;;;18.33;57.67;100995.33;5166238;57;1139068;-79
2022/07/06 19:20:28;;;;;;;18.20;5.15;;;;;;;18.30;57.89;100997.48;5125340;57;1141158;-79
2022/07/06 19:25:34;;;;;;;18.57;6.08;;;;;;;18.21;58.04;100997.41;5193281;56;1141165;-81
2022/07/06 19:30:43;;;;;;;7.97;3.55;;;;;;;18.16;58.46;100997.55;5190870;56;1141328;-79
2022/07/06 19:35:48;;;;;;;4.47;1.82;;;;;;;18.09;58.63;101000.00;5206433;56;1139115;-81
2022/07/06 19:40:54;;;;;;;1.52;0.93;;;;;;;18.05;58.84;100997.78;5186245;56;1139144;-79
2022/07/06 19:45:59;;;;;;;6.50;1.00;;;;;;;17.97;58.94;101008.44;5204999;56;1139001;-79
2022/07/06 19:51:08;;;;;;;7.67;3.42;;;;;;;17.78;59.40;101017.46;5242733;56;1138971;-81
2022/07/06 19:56:14;;;;;;;11.57;1.47;;;;;;;17.61;59.74;101014.25;5162050;56;1139063;-78
2022/07/06 20:01:20;;;;;;;7.33;1.37;;;;;;;17.46;60.31;101022.80;5155738;56;1141047;-82
2022/07/06 20:06:25;;;;;;;4.55;3.50;;;;;;;17.36;60.71;101023.37;5207452;56;1139080;-83
2022/07/06 20:11:31;;;;;;;11.20;6.20;;;;;;;17.27;60.97;101021.58;5277489;55;1139163;-81
2022/07/06 20:16:37;;;;;;;2.55;2.00;;;;;;;17.20;61.15;101026.70;5242912;56;1141179;-81
2022/07/06 20:21:43;;;;;;;4.42;1.52;;;;;;;17.13;61.47;101022.93;5238939;56;1139307;-80
2022/07/06 20:26:49;;;;;;;1.40;1.30;;;;;;;17.13;61.85;101024.76;5182489;56;1139314;-80
2022/07/06 20:31:55;;;;;;;3.07;2.40;;;;;;;17.12;61.98;101029.27;5161427;56;1136991;-82
2022/07/06 20:37:01;;;;;;;8.83;5.00;;;;;;;17.10;62.08;101030.42;5177122;57;1137162;-81
2022/07/06 20:42:12;;;;;;;6.73;4.20;;;;;;;17.12;62.12;101026.59;5037979;58;1136913;-79
2022/07/06 20:47:18;;;;;;;3.63;2.30;;;;;;;17.16;62.24;101023.13;5129015;57;1136998;-79
2022/07/06 20:52:23;;;;;;;3.17;2.03;;;;;;;17.21;62.24;101018.19;5151408;57;1136943;-80
2022/07/06 20:57:29;;;;;;;2.90;1.83;;;;;;;17.20;62.25;101021.36;5084092;57;1137013;-81
2022/07/06 21:02:35;;;;;;;4.67;1.77;;;;;;;17.16;62.42;101020.45;5133989;56;1136952;-77
2022/07/06 21:07:40;;;;;;;2.73;1.07;;;;;;;17.12;62.49;101013.72;5151626;56;1137067;-79
2022/07/06 21:12:46;;;;;;;0.70;0.70;;;;;;;17.08;62.62;101011.02;5095383;56;1136962;-81
2022/07/06 21:17:52;;;;;;;2.30;0.70;;;;;;;17.02;62.79;101016.45;5053426;58;1136915;-81
2022/07/06 21:22:58;;;;;;;3.60;1.17;;;;;;;17.01;63.07;101013.44;5100760;56;1137003;-77
2022/07/06 21:28:03;;;;;;;7.13;2.50;;;;;;;17.00;63.14;101010.91;4966471;58;1136938;-78
2022/07/06 21:33:09;;;;;;;15.63;4.40;;;;;;;17.02;63.18;101015.61;5080289;57;1136574;-77
2022/07/06 21:38:14;;;;;;;14.37;3.87;;;;;;;17.01;63.25;101012.59;5112149;57;1139254;-79
2022/07/06 21:43:20;;;;;;;5.77;2.77;;;;;;;16.94;63.40;101008.36;5200231;56;1139119;-76
2022/07/06 21:48:25;;;;;;;8.10;2.10;;;;;;;16.94;63.53;101014.19;5209338;56;1136920;-78
2022/07/06 21:53:31;;;;;;;5.63;1.77;;;;;;;16.94;63.74;101011.52;5021508;58;1136993;-76
2022/07/06 21:58:39;;;;;;;6.17;1.70;;;;;;;16.91;63.62;101008.64;5089096;56;1136954;-76
2022/07/06 22:03:44;;;;;;;3.40;1.87;;;;;;;16.91;63.65;101004.64;5072566;56;1134923;-79
2022/07/06 22:08:50;;;;;;;1.77;1.20;;;;;;;16.90;63.71;101007.45;5082423;56;21560;-79
2022/07/06 22:13:55;;;;;;;1.20;0.83;;;;;;;16.93;63.74;101001.82;5084126;56;1134840;-80
2022/07/06 22:19:01;;;;;;;8.57;1.27;;;;;;;16.98;63.67;101003.04;5046507;57;1139085;-77
2022/07/06 22:24:06;;;;;;;1.30;0.75;;;;;;;17.04;63.51;101001.61;5067640;57;1139164;-79
2022/07/06 22:29:12;;;;;;;2.23;0.50;;;;;;;17.08;63.57;101005.68;4953216;59;1145861;-80
2022/07/06 22:34:17;;;;;;;2.63;0.80;;;;;;;17.09;63.62;100998.01;4963604;57;1139070;-78
2022/07/06 22:39:23;;;;;;;1.07;0.77;;;;;;;17.12;63.93;100994.52;5006798;58;1139019;-80
2022/07/06 22:44:28;;;;;;;3.53;1.10;;;;;;;17.21;64.24;100986.11;4884162;59;1139258;-77
